Time;durP1;ratioP1;P1;durP2;ratioP2;P2;SDS_P1;SDS_P2;PMS_P1;PMS_P2;Temp;Humidity;BMP_temperature;BMP_pressure;BME280_temperature;BME280_humidity;BME280_pressure;Samples;Min_cycle;Max_cycle;Signal;HPM_P1;HPM_P2
2023/10/20 04:05:53;;;;;;;0.30;0.30;;;13.60;99.90;;;;;;5912930;22;20490;-65
2023/10/20 04:08:19;;;;;;;0.30;0.20;;;13.60;99.90;;;;;;5033115;28;20440;-65
2023/10/20 04:10:45;;;;;;;0.50;0.50;;;13.60;99.90;;;;;;5033193;28;20886;-64
2023/10/20 04:13:12;;;;;;;0.30;0.30;;;13.60;99.90;;;;;;5035180;28;20412;-66
2023/10/20 04:15:39;;;;;;;0.30;0.20;;;13.60;99.90;;;;;;5019141;28;20181;-65
2023/10/20 04:18:05;;;;;;;0.30;0.30;;;13.50;99.90;;;;;;5037397;28;20731;-65
2023/10/20 04:20:34;;;;;;;0.30;0.30;;;13.60;99.90;;;;;;5037182;28;20899;-66
2023/10/20 04:23:00;;;;;;;0.33;0.33;;;13.60;99.90;;;;;;5037267;28;20420;-66
2023/10/20 04:25:33;;;;;;;0.30;0.30;;;13.60;99.90;;;;;;5036926;28;20397;-65
2023/10/20 04:49:58;;;;;;;0.40;0.40;;;13.50;99.90;;;;;;5037058;28;20184;-65
2023/10/20 05:05:32;;;;;;;0.50;0.40;;;13.40;99.90;;;;;;5035953;28;20418;-66
2023/10/20 05:08:22;;;;;;;0.27;0.20;;;13.40;99.90;;;;;;5035440;28;20801;-65
2023/10/20 05:10:45;;;;;;;0.20;0.20;;;13.40;99.90;;;;;;5034654;28;20834;-65
2023/10/20 05:13:12;;;;;;;0.30;0.30;;;13.40;99.90;;;;;;5035187;28;20470;-65
2023/10/20 05:15:41;;;;;;;0.40;0.40;;;13.40;99.90;;;;;;5016833;28;20420;-65
2023/10/20 05:18:11;;;;;;;0.20;0.20;;;13.40;99.90;;;;;;5034786;28;20415;-65
2023/10/20 05:20:38;;;;;;;0.30;0.30;;;13.40;99.90;;;;;;5034551;28;20448;-65
2023/10/20 05:23:05;;;;;;;0.30;0.30;;;13.40;99.90;;;;;;5034097;28;20418;-66
2023/10/20 05:25:31;;;;;;;0.20;0.20;;;13.40;99.90;;;;;;5033430;28;20917;-65
2023/10/20 05:27:56;;;;;;;0.20;0.20;;;13.30;99.90;;;;;;5034428;28;20411;-65
2023/10/20 05:30:22;;;;;;;0.30;0.30;;;13.30;99.90;;;;;;5034417;28;20228;-67
2023/10/20 05:32:48;;;;;;;0.30;0.30;;;13.30;99.90;;;;;;5034626;28;20178;-61
2023/10/20 05:35:13;;;;;;;0.30;0.30;;;13.30;99.90;;;;;;5034168;28;20412;-62
2023/10/20 05:37:39;;;;;;;0.30;0.30;;;13.30;99.90;;;;;;5033935;28;20200;-61
2023/10/20 05:40:05;;;;;;;0.30;0.30;;;13.30;99.90;;;;;;5034126;28;20247;-63
2023/10/20 05:42:32;;;;;;;0.30;0.30;;;13.20;99.90;;;;;;5033901;28;20203;-63
2023/10/20 05:45:09;;;;;;;0.83;0.60;;;13.20;99.90;;;;;;5034166;28;20407;-63
2023/10/20 05:47:38;;;;;;;0.30;0.30;;;13.10;99.90;;;;;;5034564;28;20418;-62
2023/10/20 05:50:05;;;;;;;0.30;0.30;;;13.10;99.90;;;;;;5034135;28;20422;-62
2023/10/20 05:52:31;;;;;;;0.30;0.20;;;13.10;99.90;;;;;;5034229;28;20416;-63
2023/10/20 05:54:57;;;;;;;0.27;0.20;;;13.10;99.90;;;;;;5033907;28;20422;-62
2023/10/20 05:57:23;;;;;;;0.30;0.30;;;13.00;99.90;;;;;;5033991;28;20502;-63
2023/10/20 05:59:49;;;;;;;0.30;0.30;;;13.00;99.90;;;;;;5034276;28;20493;-61
2023/10/20 06:02:15;;;;;;;0.30;0.20;;;13.00;99.90;;;;;;5034197;28;20633;-64
2023/10/20 06:04:41;;;;;;;0.30;0.23;;;12.90;99.90;;;;;;5033770;28;21015;-61
2023/10/20 06:07:07;;;;;;;0.30;0.30;;;12.90;99.90;;;;;;5033582;28;20459;-63
2023/10/20 06:09:32;;;;;;;0.37;0.37;;;12.90;99.90;;;;;;4994762;28;1137796;-66
2023/10/20 06:11:59;;;;;;;0.30;0.20;;;12.90;99.90;;;;;;5015870;28;20180;-66
2023/10/20 06:14:25;;;;;;;0.30;0.30;;;12.80;99.90;;;;;;5034329;28;20866;-63
2023/10/20 06:16:51;;;;;;;0.30;0.30;;;12.80;99.90;;;;;;5034485;28;20454;-63
2023/10/20 06:19:17;;;;;;;0.30;0.30;;;12.80;99.90;;;;;;5034707;28;20418;-62
2023/10/20 06:21:42;;;;;;;0.40;0.40;;;12.80;99.90;;;;;;5034180;28;21044;-63
2023/10/20 06:24:09;;;;;;;0.30;0.30;;;12.80;99.90;;;;;;5034560;28;20188;-62
2023/10/20 06:26:34;;;;;;;0.30;0.30;;;12.80;99.90;;;;;;5033779;28;20209;-62
2023/10/20 06:29:00;;;;;;;0.30;0.30;;;12.80;99.90;;;;;;5034168;28;20847;-62
2023/10/20 06:34:09;;;;;;;0.30;0.30;;;12.70;99.90;;;;;;5034261;28;20193;-63
2023/10/20 06:36:34;;;;;;;0.70;0.60;;;12.70;99.90;;;;;;5015226;28;20425;-63
2023/10/20 06:39:03;;;;;;;0.30;0.30;;;12.70;99.90;;;;;;5034609;28;20394;-63
2023/10/20 06:41:29;;;;;;;0.30;0.30;;;12.70;99.90;;;;;;5030854;28;20747;-63
2023/10/20 06:43:55;;;;;;;0.30;0.20;;;12.70;99.90;;;;;;5016468;28;20506;-64
2023/10/20 06:46:22;;;;;;;0.30;0.30;;;12.70;99.90;;;;;;5034244;28;20264;-62
2023/10/20 06:48:47;;;;;;;0.30;0.30;;;12.70;99.90;;;;;;5034122;28;20410;-64
2023/10/20 06:51:14;;;;;;;0.40;0.40;;;12.70;99.90;;;;;;5034329;28;20473;-64
2023/10/20 06:53:39;;;;;;;0.37;0.37;;;12.80;99.90;;;;;;5034165;28;20231;-64
2023/10/20 06:56:09;;;;;;;0.30;0.30;;;12.80;99.90;;;;;;5033411;28;20452;-62
2023/10/20 06:58:44;;;;;;;0.60;0.60;;;12.80;99.90;;;;;;5110911;27;20559;-63
2023/10/20 07:01:10;;;;;;;0.30;0.30;;;12.80;99.90;;;;;;5111051;28;20469;-63
2023/10/20 07:03:35;;;;;;;0.30;0.30;;;12.90;99.90;;;;;;5111150;28;20179;-63
2023/10/20 07:06:02;;;;;;;0.30;0.30;;;12.90;99.90;;;;;;5110703;28;20244;-63
2023/10/20 07:08:27;;;;;;;0.30;0.20;;;13.00;99.90;;;;;;5110674;28;20571;-64
2023/10/20 07:10:53;;;;;;;0.30;0.30;;;13.00;99.90;;;;;;5091652;28;20473;-63
2023/10/20 07:13:18;;;;;;;0.40;0.40;;;13.10;99.90;;;;;;5110725;28;20178;-65
2023/10/20 07:15:44;;;;;;;0.30;0.30;;;13.20;99.90;;;;;;5110535;28;20174;-63
2023/10/20 07:18:13;;;;;;;0.80;0.80;;;13.20;99.90;;;;;;5091150;28;20271;-65
2023/10/20 07:20:39;;;;;;;0.97;0.60;;;13.30;99.90;;;;;;5090448;28;20937;-66
2023/10/20 07:23:05;;;;;;;0.33;0.33;;;13.40;99.90;;;;;;5090621;28;20401;-63
2023/10/20 07:25:32;;;;;;;0.30;0.30;;;13.40;99.90;;;;;;5089756;28;20548;-63
2023/10/20 07:27:58;;;;;;;0.60;0.60;;;13.50;99.90;;;;;;5090450;28;20388;-65
2023/10/20 07:30:23;;;;;;;0.30;0.27;;;13.60;99.90;;;;;;5090276;28;20414;-65
2023/10/20 07:32:52;;;;;;;0.30;0.30;;;13.60;99.90;;;;;;5107990;28;20182;-64
2023/10/20 07:35:18;;;;;;;0.30;0.30;;;13.70;99.90;;;;;;5110256;28;20195;-64
2023/10/20 07:37:44;;;;;;;0.53;0.53;;;13.70;99.90;;;;;;5110159;28;20432;-62
2023/10/20 07:40:10;;;;;;;0.40;0.40;;;13.70;99.90;;;;;;5110236;28;20406;-62
2023/10/20 07:42:39;;;;;;;0.33;0.33;;;13.80;99.90;;;;;;5110345;28;20379;-65
2023/10/20 07:45:08;;;;;;;0.30;0.20;;;13.90;99.90;;;;;;5109754;28;20408;-67
2023/10/20 07:47:34;;;;;;;0.40;0.40;;;14.00;99.90;;;;;;5091466;28;20528;-65
2023/10/20 07:50:00;;;;;;;1.13;1.03;;;14.10;99.90;;;;;;5089893;28;20420;-65
2023/10/20 07:52:26;;;;;;;0.40;0.40;;;14.10;99.90;;;;;;5089776;28;20381;-65
2023/10/20 07:54:52;;;;;;;0.30;0.30;;;14.30;99.90;;;;;;5099198;28;20980;-64
2023/10/20 07:57:19;;;;;;;0.30;0.30;;;14.30;99.90;;;;;;5109676;28;20458;-63
2023/10/20 07:59:45;;;;;;;1.07;0.67;;;14.40;99.90;;;;;;5110024;28;20916;-62
2023/10/20 08:02:11;;;;;;;0.40;0.40;;;14.50;99.90;;;;;;5109417;28;20397;-67
2023/10/20 08:04:36;;;;;;;0.57;0.57;;;14.50;99.90;;;;;;5109577;28;20431;-65
2023/10/20 08:07:03;;;;;;;0.30;0.20;;;14.60;99.90;;;;;;5109850;28;20557;-65
2023/10/20 08:09:29;;;;;;;0.33;0.33;;;14.70;99.90;;;;;;5099398;28;20254;-65
2023/10/20 08:11:56;;;;;;;0.30;0.20;;;14.80;99.90;;;;;;5096006;28;20389;-67
2023/10/20 08:14:23;;;;;;;0.57;0.57;;;14.80;99.90;;;;;;5095920;28;20179;-66
2023/10/20 08:16:49;;;;;;;0.40;0.40;;;14.80;99.90;;;;;;5078326;28;20465;-66
2023/10/20 08:19:15;;;;;;;0.30;0.30;;;14.90;99.90;;;;;;5075650;28;20408;-67
2023/10/20 08:21:42;;;;;;;0.30;0.30;;;15.00;99.90;;;;;;5075769;28;20422;-66
2023/10/20 08:24:08;;;;;;;0.30;0.30;;;15.00;99.90;;;;;;5075266;28;20241;-65
2023/10/20 08:26:33;;;;;;;0.40;0.40;;;15.10;99.90;;;;;;5075873;28;20439;-66
2023/10/20 08:28:59;;;;;;;0.30;0.30;;;15.10;99.90;;;;;;5075708;28;20697;-64
2023/10/20 08:31:25;;;;;;;0.30;0.30;;;15.20;99.90;;;;;;5091644;28;20201;-66
2023/10/20 08:33:52;;;;;;;0.30;0.30;;;15.20;99.90;;;;;;5095512;28;20177;-67
2023/10/20 08:36:22;;;;;;;0.40;0.40;;;15.30;99.90;;;;;;5095506;28;20476;-65
2023/10/20 08:38:49;;;;;;;0.30;0.20;;;15.40;99.90;;;;;;5095425;28;20499;-62
2023/10/20 08:41:24;;;;;;;0.30;0.30;;;15.40;99.90;;;;;;5095482;28;20378;-63
2023/10/20 08:43:50;;;;;;;0.30;0.30;;;15.50;99.90;;;;;;5095604;28;20741;-65
2023/10/20 08:46:17;;;;;;;0.47;0.47;;;15.60;99.90;;;;;;5078405;28;20448;-64
2023/10/20 08:48:44;;;;;;;0.30;0.30;;;15.80;99.90;;;;;;5075337;28;20501;-65
2023/10/20 08:51:12;;;;;;;0.33;0.33;;;15.90;99.90;;;;;;5075098;28;20476;-65
2023/10/20 08:53:38;;;;;;;0.87;0.87;;;16.10;99.90;;;;;;5075268;28;20439;-67
2023/10/20 08:56:06;;;;;;;0.60;0.60;;;16.30;99.90;;;;;;5074693;28;20902;-65
2023/10/20 08:58:33;;;;;;;0.40;0.40;;;16.40;99.90;;;;;;5074656;28;20428;-67
2023/10/20 09:00:59;;;;;;;0.43;0.43;;;16.60;99.90;;;;;;5091679;28;20487;-67
2023/10/20 09:03:44;;;;;;;0.70;0.70;;;16.80;99.90;;;;;;5095147;28;20387;-67
2023/10/20 09:06:14;;;;;;;0.30;0.30;;;16.90;99.90;;;;;;5095011;28;20456;-66
2023/10/20 09:08:43;;;;;;;0.40;0.40;;;16.90;99.90;;;;;;5094991;28;20483;-66
2023/10/20 09:11:10;;;;;;;0.30;0.30;;;16.90;99.90;;;;;;5095354;28;20435;-67
2023/10/20 09:13:39;;;;;;;0.30;0.30;;;17.00;99.90;;;;;;5095301;28;20381;-67
2023/10/20 09:16:07;;;;;;;0.40;0.30;;;17.10;99.90;;;;;;5094764;28;20430;-67
2023/10/20 09:18:44;;;;;;;0.30;0.30;;;17.20;99.90;;;;;;5084410;28;20458;-67
2023/10/20 09:21:12;;;;;;;0.40;0.40;;;17.30;99.90;;;;;;5073486;28;20407;-67
2023/10/20 09:23:39;;;;;;;0.70;0.70;;;17.20;99.90;;;;;;5074515;28;20382;-65
2023/10/20 09:26:04;;;;;;;0.30;0.30;;;17.30;99.90;;;;;;5056345;28;20434;-67
2023/10/20 09:28:30;;;;;;;0.30;0.20;;;17.30;99.90;;;;;;5074562;28;20435;-66
2023/10/20 09:30:57;;;;;;;0.97;0.97;;;17.30;99.90;;;;;;5074479;28;20902;-64
2023/10/20 09:33:23;;;;;;;0.30;0.20;;;17.30;99.90;;;;;;5084223;28;20212;-64
2023/10/20 09:35:50;;;;;;;0.30;0.30;;;17.30;99.90;;;;;;5093731;28;20508;-65
2023/10/20 09:38:23;;;;;;;0.30;0.20;;;17.30;99.90;;;;;;5094387;28;20964;-67
2023/10/20 09:40:58;;;;;;;0.80;0.80;;;17.30;99.90;;;;;;5094713;28;20383;-64
2023/10/20 09:43:30;;;;;;;0.50;0.50;;;17.30;99.90;;;;;;5094246;28;20861;-66
2023/10/20 09:46:34;;;;;;;0.30;0.30;;;17.30;99.90;;;;;;5093994;28;20418;-67
2023/10/20 09:49:14;;;;;;;0.30;0.30;;;17.40;99.90;;;;;;5076274;28;20415;-67
2023/10/20 09:51:45;;;;;;;0.47;0.47;;;17.60;99.90;;;;;;5082584;28;20396;-64
2023/10/20 09:54:13;;;;;;;0.33;0.33;;;17.80;99.90;;;;;;5093969;28;20399;-63
2023/10/20 09:56:41;;;;;;;0.30;0.30;;;17.90;99.90;;;;;;5093890;28;20476;-63
2023/10/20 09:59:09;;;;;;;0.30;0.30;;;18.00;99.90;;;;;;5094310;28;20407;-65
2023/10/20 10:01:37;;;;;;;0.80;0.80;;;18.10;99.90;;;;;;5093836;28;20417;-66
2023/10/20 10:04:05;;;;;;;0.30;0.30;;;18.10;99.90;;;;;;5093712;28;20421;-64
2023/10/20 10:06:35;;;;;;;0.30;0.30;;;18.00;99.90;;;;;;5093982;28;20405;-68
2023/10/20 10:09:04;;;;;;;0.80;0.80;;;18.00;99.90;;;;;;5094173;28;20403;-65
2023/10/20 10:11:31;;;;;;;0.30;0.30;;;18.00;99.90;;;;;;5083800;28;20427;-66
2023/10/20 10:14:06;;;;;;;0.40;0.40;;;18.00;99.90;;;;;;5072950;28;20870;-64
2023/10/20 10:16:36;;;;;;;0.30;0.30;;;17.90;99.90;;;;;;5073044;28;20446;-67
2023/10/20 10:19:09;;;;;;;0.30;0.30;;;17.90;99.90;;;;;;5073430;28;20436;-66
2023/10/20 10:21:42;;;;;;;0.30;0.20;;;17.80;99.90;;;;;;5073513;28;20913;-66
2023/10/20 10:24:11;;;;;;;1.47;0.80;;;17.80;99.90;;;;;;5058032;28;20419;-66
2023/10/20 10:26:53;;;;;;;0.30;0.30;;;17.70;99.90;;;;;;5093697;28;20441;-66
2023/10/20 10:29:41;;;;;;;0.40;0.40;;;17.70;99.90;;;;;;5093732;28;20381;-66
2023/10/20 10:32:13;;;;;;;0.60;0.60;;;17.70;99.90;;;;;;5075701;28;20890;-64
2023/10/20 10:34:47;;;;;;;0.50;0.50;;;17.80;99.90;;;;;;5093287;28;20410;-66
2023/10/20 10:37:15;;;;;;;0.30;0.30;;;17.80;99.90;;;;;;5092963;28;20963;-66
2023/10/20 10:39:41;;;;;;;0.30;0.30;;;17.90;99.90;;;;;;5083760;28;20425;-68
2023/10/20 10:42:07;;;;;;;0.50;0.50;;;17.90;99.90;;;;;;5073388;28;20476;-66
2023/10/20 10:44:37;;;;;;;0.47;0.47;;;18.00;99.90;;;;;;5072876;28;20226;-68
2023/10/20 10:47:16;;;;;;;0.30;0.30;;;18.00;99.90;;;;;;5073192;28;20201;-66
2023/10/20 10:49:47;;;;;;;0.30;0.30;;;18.00;99.90;;;;;;5073385;28;20448;-65
2023/10/20 10:52:12;;;;;;;0.30;0.30;;;18.10;99.90;;;;;;5073003;28;20407;-65
2023/10/20 10:54:38;;;;;;;0.30;0.20;;;18.10;99.90;;;;;;5083422;28;20739;-66
2023/10/20 10:57:04;;;;;;;1.33;0.50;;;18.00;99.90;;;;;;5084938;28;20555;-65
2023/10/20 10:59:30;;;;;;;0.30;0.23;;;17.90;99.90;;;;;;5072950;28;20234;-64
2023/10/20 11:01:57;;;;;;;0.30;0.20;;;17.90;99.90;;;;;;5073155;28;20205;-65
2023/10/20 11:04:23;;;;;;;0.30;0.30;;;17.90;99.90;;;;;;5075638;28;20419;-66
2023/10/20 11:06:49;;;;;;;0.30;0.27;;;17.90;99.90;;;;;;5091814;28;20850;-65
2023/10/20 11:09:26;;;;;;;0.30;0.20;;;17.90;99.90;;;;;;5086690;28;20958;-67
2023/10/20 11:11:52;;;;;;;0.30;0.20;;;17.90;99.90;;;;;;5089788;28;20406;-64
2023/10/20 11:14:18;;;;;;;0.30;0.30;;;17.80;99.90;;;;;;5079597;28;20915;-68
2023/10/20 11:16:45;;;;;;;0.30;0.30;;;17.80;99.90;;;;;;5072651;28;20555;-70
2023/10/20 11:19:14;;;;;;;0.30;0.20;;;17.80;99.90;;;;;;5072750;28;20494;-63
2023/10/20 11:21:43;;;;;;;0.30;0.30;;;17.70;99.90;;;;;;5079434;28;20509;-64
2023/10/20 11:24:09;;;;;;;0.30;0.20;;;17.60;99.90;;;;;;5087615;28;21191;-62
2023/10/20 11:26:35;;;;;;;0.43;0.43;;;17.60;99.90;;;;;;5092825;28;20404;-67
2023/10/20 11:29:07;;;;;;;0.30;0.30;;;17.60;99.90;;;;;;5092829;28;20176;-64
2023/10/20 11:31:33;;;;;;;0.30;0.30;;;17.60;99.90;;;;;;5091140;28;20410;-65
2023/10/20 11:33:59;;;;;;;0.30;0.20;;;17.60;99.90;;;;;;5079889;28;20474;-62
2023/10/20 11:36:24;;;;;;;0.30;0.30;;;17.60;99.90;;;;;;5081975;28;20414;-64
2023/10/20 11:38:53;;;;;;;0.30;0.30;;;17.70;99.90;;;;;;5079443;28;20787;-63
2023/10/20 11:41:18;;;;;;;0.30;0.20;;;17.70;99.90;;;;;;5092719;28;20175;-65
2023/10/20 11:43:44;;;;;;;0.30;0.30;;;17.70;99.90;;;;;;5080243;28;20920;-65
2023/10/20 11:46:11;;;;;;;0.30;0.20;;;17.80;99.90;;;;;;5075835;28;20308;-61
2023/10/20 11:48:36;;;;;;;0.30;0.30;;;17.80;99.90;;;;;;5085016;28;20410;-64
2023/10/20 11:51:02;;;;;;;0.30;0.20;;;17.80;99.90;;;;;;5090368;28;20811;-65
2023/10/20 11:53:28;;;;;;;0.30;0.20;;;17.80;99.90;;;;;;5076235;28;20181;-66
2023/10/20 11:55:54;;;;;;;0.30;0.30;;;17.80;99.90;;;;;;5082550;28;20200;-69
2023/10/20 11:58:20;;;;;;;0.47;0.47;;;17.90;99.90;;;;;;5093699;28;20288;-65
2023/10/20 12:00:46;;;;;;;0.30;0.20;;;17.90;99.90;;;;;;5076901;28;20513;-63
2023/10/20 12:03:11;;;;;;;0.30;0.30;;;17.90;99.90;;;;;;5083879;28;20180;-64
2023/10/20 12:05:37;;;;;;;0.30;0.20;;;17.90;99.90;;;;;;5095955;28;20911;-70
2023/10/20 12:08:04;;;;;;;0.60;0.60;;;17.90;99.90;;;;;;5096148;28;20182;-66
2023/10/20 12:10:31;;;;;;;0.30;0.30;;;17.80;99.90;;;;;;5081207;28;20279;-64
2023/10/20 12:12:57;;;;;;;0.30;0.20;;;17.80;99.90;;;;;;5075652;28;20419;-63
2023/10/20 12:15:22;;;;;;;0.30;0.30;;;17.80;99.90;;;;;;5075337;28;20940;-64
2023/10/20 12:17:48;;;;;;;0.30;0.20;;;17.80;99.90;;;;;;5075568;28;20473;-64
2023/10/20 12:20:15;;;;;;;0.30;0.20;;;17.80;99.90;;;;;;5092906;28;20180;-63
2023/10/20 12:22:40;;;;;;;0.30;0.30;;;17.70;99.90;;;;;;5086278;28;20591;-64
2023/10/20 12:25:07;;;;;;;0.30;0.30;;;17.80;99.90;;;;;;5095702;28;20410;-64
2023/10/20 12:27:33;;;;;;;0.30;0.30;;;17.80;99.90;;;;;;5096002;28;20372;-64
2023/10/20 12:29:58;;;;;;;0.30;0.27;;;17.80;99.90;;;;;;5080263;28;20451;-64
2023/10/20 12:32:24;;;;;;;0.30;0.27;;;17.80;99.90;;;;;;5075449;28;20398;-63
2023/10/20 12:34:49;;;;;;;0.30;0.30;;;17.80;99.90;;;;;;5078822;28;20204;-62
2023/10/20 12:37:15;;;;;;;0.30;0.30;;;17.80;99.90;;;;;;5086673;28;20198;-64
2023/10/20 12:39:41;;;;;;;0.30;0.30;;;17.90;99.90;;;;;;5088413;28;20656;-63
2023/10/20 12:42:07;;;;;;;0.30;0.30;;;17.90;99.90;;;;;;5075238;28;20169;-62
2023/10/20 12:44:33;;;;;;;0.30;0.20;;;18.10;99.90;;;;;;5074742;28;20180;-61
2023/10/20 12:46:59;;;;;;;0.30;0.20;;;18.20;99.90;;;;;;5090708;28;20934;-61
2023/10/20 12:49:25;;;;;;;0.30;0.30;;;18.30;99.90;;;;;;5077503;28;20518;-62
2023/10/20 12:51:51;;;;;;;0.30;0.30;;;18.40;99.90;;;;;;5089473;28;20479;-63
2023/10/20 12:54:16;;;;;;;0.30;0.30;;;18.50;99.90;;;;;;5089891;28;20204;-62
2023/10/20 12:56:42;;;;;;;0.30;0.30;;;18.50;99.90;;;;;;5087007;28;20234;-62
2023/10/20 12:59:07;;;;;;;0.30;0.30;;;18.50;99.90;;;;;;5085387;28;20188;-62
2023/10/20 13:01:33;;;;;;;0.30;0.30;;;18.50;99.90;;;;;;5057159;28;20176;-62
2023/10/20 13:03:59;;;;;;;0.30;0.20;;;18.40;99.90;;;;;;5093930;28;20172;-61
2023/10/20 13:06:25;;;;;;;0.37;0.37;;;18.40;99.90;;;;;;5077659;28;20193;-60
2023/10/20 13:08:51;;;;;;;0.30;0.20;;;18.50;99.90;;;;;;5087601;28;20422;-62
2023/10/20 13:11:17;;;;;;;0.30;0.20;;;18.40;99.90;;;;;;5080529;28;20480;-62
2023/10/20 13:13:43;;;;;;;0.30;0.20;;;18.50;99.90;;;;;;5076107;28;20176;-62
2023/10/20 13:16:08;;;;;;;0.30;0.20;;;18.40;99.90;;;;;;5090870;28;20202;-62
2023/10/20 13:18:35;;;;;;;0.30;0.30;;;18.40;99.90;;;;;;5081806;28;20288;-62
2023/10/20 13:21:03;;;;;;;0.30;0.23;;;18.40;99.90;;;;;;5087214;28;20555;-61
2023/10/20 13:23:28;;;;;;;0.30;0.20;;;18.40;99.90;;;;;;5080406;28;20426;-62
2023/10/20 13:26:04;;;;;;;0.30;0.30;;;18.40;99.90;;;;;;5078043;28;20447;-60
2023/10/20 13:28:30;;;;;;;0.30;0.20;;;18.40;99.90;;;;;;5086381;28;20536;-61
2023/10/20 13:31:09;;;;;;;0.30;0.30;;;18.40;99.90;;;;;;5075079;28;20418;-61
2023/10/20 13:33:36;;;;;;;0.30;0.23;;;18.40;99.90;;;;;;5083692;28;20397;-61
2023/10/20 13:36:04;;;;;;;0.30;0.30;;;18.40;99.90;;;;;;5073682;28;20435;-61
2023/10/20 13:38:31;;;;;;;0.30;0.20;;;18.40;99.90;;;;;;5089513;28;20505;-61
2023/10/20 13:40:56;;;;;;;0.30;0.20;;;18.30;99.90;;;;;;5094559;28;20489;-62
2023/10/20 13:43:22;;;;;;;0.30;0.20;;;18.30;99.90;;;;;;5094154;28;20422;-61
2023/10/20 13:45:48;;;;;;;0.30;0.30;;;18.30;99.90;;;;;;5093942;28;20422;-62
2023/10/20 13:48:14;;;;;;;0.30;0.30;;;18.30;99.90;;;;;;5094384;28;20176;-62
2023/10/20 13:50:40;;;;;;;0.30;0.30;;;18.30;99.90;;;;;;5084416;28;20484;-62
2023/10/20 13:53:07;;;;;;;0.30;0.20;;;18.30;99.90;;;;;;5090578;28;20186;-62
2023/10/20 13:55:33;;;;;;;0.30;0.30;;;18.20;99.90;;;;;;5090008;28;20400;-61
2023/10/20 13:57:58;;;;;;;0.30;0.23;;;18.20;99.90;;;;;;5088520;28;20878;-62
2023/10/20 14:00:24;;;;;;;0.30;0.20;;;18.10;99.90;;;;;;5086240;28;20199;-61
2023/10/20 14:02:50;;;;;;;0.30;0.30;;;18.10;99.90;;;;;;5067906;28;20172;-62
2023/10/20 14:05:18;;;;;;;0.30;0.20;;;18.10;99.90;;;;;;5075118;28;20535;-61
2023/10/20 14:07:45;;;;;;;0.30;0.30;;;18.10;99.90;;;;;;5079730;28;20211;-62
2023/10/20 14:10:11;;;;;;;0.30;0.30;;;18.10;99.90;;;;;;5086062;28;20402;-62
2023/10/20 14:12:37;;;;;;;0.30;0.30;;;18.10;99.90;;;;;;5085624;28;21004;-62
2023/10/20 14:15:03;;;;;;;0.30;0.30;;;18.10;99.90;;;;;;5090143;28;20184;-62
2023/10/20 14:17:29;;;;;;;0.30;0.20;;;18.10;99.90;;;;;;5078479;28;20792;-61
2023/10/20 14:19:54;;;;;;;0.40;0.40;;;18.00;99.90;;;;;;5081626;28;20432;-62
2023/10/20 14:22:20;;;;;;;0.30;0.20;;;17.90;99.90;;;;;;5082705;28;20320;-63
2023/10/20 14:24:46;;;;;;;0.33;0.33;;;17.90;99.90;;;;;;5077696;28;20206;-62
2023/10/20 14:27:13;;;;;;;0.30;0.30;;;17.80;99.90;;;;;;5072441;28;20200;-63
2023/10/20 14:29:38;;;;;;;0.30;0.20;;;17.70;99.90;;;;;;5073532;28;20575;-62
2023/10/20 14:32:04;;;;;;;0.30;0.20;;;17.60;99.90;;;;;;5079492;28;20431;-63
2023/10/20 14:34:31;;;;;;;0.30;0.20;;;17.50;99.90;;;;;;5074737;28;20183;-64
2023/10/20 14:36:57;;;;;;;0.30;0.20;;;17.40;99.90;;;;;;5083066;28;20864;-61
2023/10/20 14:39:23;;;;;;;0.30;0.30;;;17.30;99.90;;;;;;5085223;28;20428;-61
2023/10/20 14:41:49;;;;;;;0.30;0.30;;;17.10;99.90;;;;;;5084793;28;20174;-62
2023/10/20 14:44:14;;;;;;;0.30;0.30;;;17.00;99.90;;;;;;5093087;28;20434;-64
2023/10/20 14:46:40;;;;;;;0.30;0.30;;;16.90;99.90;;;;;;5077542;28;20226;-64
2023/10/20 14:49:06;;;;;;;0.30;0.30;;;16.70;99.90;;;;;;5077834;28;20181;-65
2023/10/20 14:51:31;;;;;;;0.30;0.30;;;16.60;99.90;;;;;;5093130;28;20932;-66
2023/10/20 14:53:58;;;;;;;0.30;0.20;;;16.40;99.90;;;;;;5086656;28;20173;-66
2023/10/20 14:56:23;;;;;;;0.30;0.30;;;16.30;99.90;;;;;;5079600;28;20189;-62
2023/10/20 14:58:49;;;;;;;0.30;0.30;;;16.10;99.90;;;;;;5093090;28;20467;-62
2023/10/20 15:01:14;;;;;;;0.30;0.30;;;15.90;99.90;;;;;;5076060;28;20178;-61
2023/10/20 15:03:40;;;;;;;0.30;0.30;;;15.80;99.90;;;;;;5073007;28;20178;-62
2023/10/20 15:06:06;;;;;;;0.30;0.30;;;15.70;99.90;;;;;;5072592;28;20194;-63
2023/10/20 15:08:33;;;;;;;0.30;0.20;;;15.60;99.90;;;;;;5081154;28;20276;-63
2023/10/20 15:10:59;;;;;;;0.30;0.20;;;15.50;99.90;;;;;;5089943;28;20180;-62
2023/10/20 15:13:25;;;;;;;0.30;0.20;;;15.50;99.90;;;;;;5073063;28;20500;-62
2023/10/20 15:15:51;;;;;;;0.30;0.30;;;15.40;99.90;;;;;;5072586;28;20479;-65
2023/10/20 15:18:18;;;;;;;0.30;0.20;;;15.30;99.90;;;;;;5077821;28;20464;-64
2023/10/20 15:20:44;;;;;;;0.30;0.30;;;15.30;99.90;;;;;;5085255;28;20397;-67
2023/10/20 15:23:10;;;;;;;0.30;0.20;;;15.30;99.90;;;;;;5095363;28;20543;-64
2023/10/20 15:25:40;;;;;;;0.30;0.20;;;15.30;99.90;;;;;;5096606;28;20505;-62
2023/10/20 15:28:06;;;;;;;0.70;0.47;;;15.20;99.90;;;;;;5095048;28;20941;-63
2023/10/20 15:30:32;;;;;;;0.30;0.30;;;15.20;99.90;;;;;;5083658;28;20422;-64
2023/10/20 15:32:58;;;;;;;0.60;0.60;;;15.20;99.90;;;;;;5092154;28;20853;-62
2023/10/20 15:35:23;;;;;;;0.30;0.20;;;15.20;99.90;;;;;;5085084;28;20525;-67
2023/10/20 15:37:49;;;;;;;0.30;0.30;;;15.20;99.90;;;;;;5100386;28;20208;-67
2023/10/20 15:40:15;;;;;;;0.30;0.30;;;15.20;99.90;;;;;;5089098;28;20181;-64
2023/10/20 15:42:41;;;;;;;0.30;0.20;;;15.20;99.90;;;;;;5092636;28;20176;-63
2023/10/20 15:45:08;;;;;;;0.30;0.30;;;15.10;99.90;;;;;;5095947;28;20392;-67
2023/10/20 15:47:34;;;;;;;0.30;0.20;;;15.10;99.90;;;;;;5091787;28;20200;-66
2023/10/20 15:49:59;;;;;;;0.30;0.20;;;15.10;99.90;;;;;;5080502;28;20540;-66
2023/10/20 15:52:25;;;;;;;0.30;0.30;;;15.10;99.90;;;;;;5091264;28;20225;-65
2023/10/20 15:54:53;;;;;;;0.30;0.20;;;15.00;99.90;;;;;;5083028;28;20263;-65
2023/10/20 15:57:19;;;;;;;0.30;0.30;;;15.00;99.90;;;;;;5092814;28;20573;-66
2023/10/20 15:59:44;;;;;;;0.30;0.20;;;15.00;99.90;;;;;;5085061;28;20397;-64
2023/10/20 16:02:10;;;;;;;0.30;0.30;;;14.90;99.90;;;;;;5088625;28;20206;-63
2023/10/20 16:04:35;;;;;;;0.30;0.30;;;15.00;99.90;;;;;;5067022;28;20176;-64
2023/10/20 16:07:01;;;;;;;0.30;0.30;;;14.90;99.90;;;;;;5076787;28;20208;-65
2023/10/20 16:09:27;;;;;;;0.30;0.30;;;14.90;99.90;;;;;;5086470;28;20180;-65
2023/10/20 16:11:52;;;;;;;0.30;0.30;;;14.90;99.90;;;;;;5091126;28;20646;-71
2023/10/20 16:14:18;;;;;;;0.30;0.20;;;14.90;99.90;;;;;;5117173;28;20205;-64
2023/10/20 16:16:43;;;;;;;0.30;0.30;;;14.90;99.90;;;;;;5087491;28;20670;-68
2023/10/20 16:19:10;;;;;;;0.40;0.40;;;14.80;99.90;;;;;;5076011;28;20179;-63
2023/10/20 16:21:36;;;;;;;0.30;0.30;;;14.90;99.90;;;;;;5076721;28;20649;-63
2023/10/20 16:24:01;;;;;;;0.33;0.33;;;14.90;99.90;;;;;;5077404;28;20419;-63
2023/10/20 16:26:27;;;;;;;0.30;0.20;;;14.90;99.90;;;;;;5095606;28;20698;-68
2023/10/20 16:28:53;;;;;;;0.40;0.40;;;14.80;99.90;;;;;;5094947;28;20541;-62
2023/10/20 16:31:18;;;;;;;0.30;0.20;;;14.80;99.90;;;;;;5078034;28;20654;-64
2023/10/20 16:33:44;;;;;;;0.40;0.40;;;14.80;99.90;;;;;;5086828;28;20180;-63
2023/10/20 16:36:10;;;;;;;0.30;0.30;;;14.80;99.90;;;;;;5087065;28;20197;-64
2023/10/20 16:38:35;;;;;;;0.30;0.20;;;14.80;99.90;;;;;;5081410;28;20239;-63
2023/10/20 16:41:01;;;;;;;0.30;0.30;;;14.80;99.90;;;;;;5076213;28;20171;-63
2023/10/20 16:43:26;;;;;;;1.23;0.50;;;14.80;99.90;;;;;;5075334;28;20173;-63
2023/10/20 16:45:52;;;;;;;0.30;0.30;;;14.70;99.90;;;;;;5089082;28;20620;-63
2023/10/20 16:48:19;;;;;;;0.30;0.30;;;14.70;99.90;;;;;;5094553;28;20580;-64
2023/10/20 16:50:44;;;;;;;0.30;0.30;;;14.70;99.90;;;;;;5075236;28;20622;-62
2023/10/20 16:53:10;;;;;;;0.30;0.20;;;14.70;99.90;;;;;;5088297;28;20426;-63
2023/10/20 16:55:37;;;;;;;0.30;0.30;;;14.80;99.90;;;;;;5087736;28;20204;-64
2023/10/20 16:58:03;;;;;;;0.30;0.30;;;14.80;99.90;;;;;;5080255;28;20248;-63
2023/10/20 17:00:30;;;;;;;0.30;0.20;;;14.80;99.90;;;;;;5092079;28;20415;-62
2023/10/20 17:02:56;;;;;;;0.30;0.30;;;14.80;99.90;;;;;;5076130;28;20770;-63
2023/10/20 17:05:22;;;;;;;0.30;0.20;;;14.80;99.90;;;;;;5086968;28;20414;-63
2023/10/20 17:07:48;;;;;;;0.50;0.50;;;14.80;99.90;;;;;;5090809;28;20454;-63
2023/10/20 17:10:14;;;;;;;0.40;0.30;;;14.80;99.90;;;;;;5095080;28;20792;-64
2023/10/20 17:12:39;;;;;;;0.30;0.20;;;14.80;99.90;;;;;;5095156;28;20414;-64
2023/10/20 17:15:05;;;;;;;0.30;0.30;;;14.80;99.90;;;;;;5094125;28;20175;-65
2023/10/20 17:17:31;;;;;;;0.37;0.37;;;14.70;99.90;;;;;;5086019;28;20531;-64
2023/10/20 17:19:57;;;;;;;4.03;1.27;;;14.70;99.90;;;;;;5079556;28;20517;-65
2023/10/20 17:22:22;;;;;;;0.30;0.30;;;14.70;99.90;;;;;;5084082;28;20213;-65
2023/10/20 17:24:50;;;;;;;0.30;0.20;;;14.70;99.90;;;;;;5077989;28;20657;-65
2023/10/20 17:27:16;;;;;;;0.30;0.30;;;14.70;99.90;;;;;;5074186;28;20208;-67
2023/10/20 17:29:41;;;;;;;0.30;0.30;;;14.70;99.90;;;;;;5087566;28;20396;-65